createdAt,value
2018-10-07T00:00:49.663Z,100572.02
2018-10-07T00:03:20.193Z,100579.70
2018-10-07T00:05:50.412Z,100575.19
2018-10-07T00:08:20.943Z,100572.98
2018-10-07T00:10:51.675Z,100581.91
2018-10-07T00:13:22.204Z,100577.02
2018-10-07T00:15:52.940Z,100576.86
2018-10-07T00:18:23.373Z,100578.36
2018-10-07T00:20:53.694Z,100580.05
2018-10-07T00:23:24.024Z,100581.39
2018-10-07T00:25:54.444Z,100583.10
2018-10-07T00:28:24.899Z,100585.80
2018-10-07T00:30:55.612Z,100582.61
2018-10-07T00:33:25.838Z,100577.23
2018-10-07T00:35:56.057Z,100577.23
2018-10-07T00:38:26.584Z,100575.89
2018-10-07T00:40:56.812Z,100575.41
2018-10-07T00:43:27.237Z,100578.09
2018-10-07T00:45:57.872Z,100579.44
2018-10-07T00:48:28.192Z,100575.41
2018-10-07T00:50:58.622Z,100567.72
2018-10-07T00:53:28.747Z,100555.55
2018-10-07T00:55:59.373Z,100569.16
2018-10-07T00:58:29.909Z,100566.10
2018-10-07T01:01:00.230Z,100567.81
2018-10-07T01:03:30.657Z,100560.72
2018-10-07T01:06:00.990Z,100558.03
2018-10-07T01:08:31.825Z,100554.48
2018-10-07T01:11:02.250Z,100551.30
2018-10-07T01:13:32.367Z,100550.45
2018-10-07T01:16:02.901Z,100550.45
2018-10-07T01:18:33.123Z,100547.42
2018-10-07T01:21:03.352Z,100541.55
2018-10-07T01:23:33.469Z,100538.48
2018-10-07T01:26:03.789Z,100546.08
2018-10-07T01:28:34.119Z,100546.56
2018-10-07T01:31:04.851Z,100550.97
2018-10-07T01:33:34.973Z,100547.91
2018-10-07T01:36:05.810Z,100552.31
2018-10-07T01:45:21.955Z,100549.67
2018-10-07T01:47:52.688Z,100553.98
2018-10-07T01:50:23.112Z,100554.47
2018-10-07T01:52:53.541Z,100554.84
2018-10-07T01:55:23.880Z,100553.49
2018-10-07T01:57:54.197Z,100554.31
2018-10-07T02:00:24.521Z,100557.53
2018-10-07T02:02:54.951Z,100562.39
2018-10-07T02:05:25.074Z,100561.41
2018-10-07T02:07:55.288Z,100559.21
2018-10-07T02:10:26.029Z,100565.45
2018-10-07T02:12:56.253Z,100561.05
2018-10-07T02:15:26.566Z,100560.44
2018-10-07T02:17:57.010Z,100567.16
2018-10-07T02:20:28.248Z,100560.06
2018-10-07T02:22:58.878Z,100555.17
2018-10-07T02:25:29.309Z,100556.52
2018-10-07T02:27:59.752Z,100561.90
2018-10-07T02:30:30.064Z,100560.06
2018-10-07T02:33:00.798Z,100562.76
2018-10-07T02:35:31.235Z,100566.80
2018-10-07T02:38:01.660Z,100566.42
2018-10-07T02:40:31.981Z,100567.28
2018-10-07T02:43:02.198Z,100568.63
2018-10-07T02:45:32.630Z,100570.83
2018-10-07T02:48:02.853Z,100578.05
2018-10-07T02:50:33.275Z,100569.48
2018-10-07T02:53:03.806Z,100575.23
2018-10-07T02:55:34.650Z,100572.17
2018-10-07T02:58:06.510Z,100573.52
2018-10-07T03:00:36.828Z,100576.58
2018-10-07T03:03:07.577Z,100576.20
2018-10-07T03:05:37.998Z,100573.89
2018-10-07T03:08:08.522Z,100576.58
2018-10-07T03:10:38.951Z,100579.27
2018-10-07T03:13:09.385Z,100582.30
2018-10-07T03:15:39.708Z,100574.16
2018-10-07T03:18:10.541Z,100585.36
2018-10-07T03:20:40.663Z,100585.36
2018-10-07T03:23:11.399Z,100589.87
2018-10-07T03:25:42.243Z,100587.95
2018-10-07T03:28:14.002Z,100598.22
2018-10-07T03:30:44.117Z,100609.08
2018-10-07T03:33:14.958Z,100609.57
2018-10-07T03:35:45.985Z,100611.77
2018-10-07T03:38:16.632Z,100608.23
2018-10-07T03:40:46.751Z,100609.47
2018-10-07T03:43:17.624Z,100615.44
2018-10-07T03:45:48.223Z,100614.09
2018-10-07T03:48:19.263Z,100625.72
2018-10-07T03:50:49.796Z,100632.44
2018-10-07T03:53:20.220Z,100632.06
2018-10-07T03:55:50.651Z,100632.06
2018-10-07T03:58:20.978Z,100631.14
2018-10-07T04:00:51.296Z,100641.48
2018-10-07T04:03:21.729Z,100642.49
2018-10-07T04:05:52.362Z,100637.11
2018-10-07T04:08:22.786Z,100646.53
2018-10-07T04:10:53.316Z,100649.22
2018-10-07T04:13:23.953Z,100650.56
2018-10-07T04:15:54.385Z,100657.30
2018-10-07T04:18:24.912Z,100663.16
2018-10-07T04:20:55.129Z,100656.06
2018-10-07T04:23:25.574Z,100657.41
2018-10-07T04:25:55.887Z,100660.88
2018-10-07T04:28:26.626Z,100661.92
2018-10-07T04:30:57.251Z,100662.94
2018-10-07T04:33:27.482Z,100662.94
2018-10-07T04:35:57.902Z,100667.45
2018-10-07T04:38:28.335Z,100667.95
2018-10-07T04:40:58.973Z,100670.15
2018-10-07T04:43:29.597Z,100666.97
2018-10-07T04:45:59.927Z,100671.98
2018-10-07T04:48:30.554Z,100678.22
2018-10-07T04:51:00.984Z,100683.11
2018-10-07T04:53:31.497Z,100680.05
2018-10-07T04:56:02.961Z,100676.39
2018-10-07T04:58:33.800Z,100684.95
2018-10-07T05:01:05.453Z,100687.64
2018-10-07T05:03:36.298Z,100688.83
2018-10-07T05:06:08.257Z,100669.97
2018-10-07T05:08:40.326Z,100689.84
2018-10-07T05:11:11.166Z,100695.22
2018-10-07T05:13:55.204Z,100697.91
2018-10-07T05:16:35.662Z,100705.98
2018-10-07T05:19:06.403Z,100702.95
2018-10-07T05:21:37.042Z,100712.11
2018-10-07T05:24:07.877Z,100723.09
2018-10-07T05:26:38.200Z,100720.78
2018-10-07T05:29:08.426Z,100720.78
2018-10-07T05:31:38.460Z,100719.44
2018-10-07T05:34:09.186Z,100721.67
2018-10-07T05:36:40.321Z,100726.91
2018-10-07T05:39:13.107Z,100733.22
2018-10-07T05:41:44.041Z,100728.70
2018-10-07T05:44:14.676Z,100741.66
2018-10-07T05:46:45.312Z,100747.05
2018-10-07T05:49:16.145Z,100748.87
2018-10-07T05:51:46.578Z,100742.94
2018-10-07T05:54:17.022Z,100753.55
2018-10-07T05:56:47.878Z,100756.95
2018-10-07T05:59:18.983Z,100767.71
2018-10-07T06:01:50.238Z,100769.92
2018-10-07T06:04:25.506Z,100785.09
2018-10-07T06:06:57.741Z,100789.61
2018-10-07T06:09:32.164Z,100787.89
2018-10-07T06:12:03.408Z,100798.54
2018-10-07T06:14:44.095Z,100807.44
2018-10-07T06:17:15.018Z,100804.03
2018-10-07T06:19:45.967Z,100811.62
2018-10-07T06:22:16.982Z,100816.14
2018-10-07T06:24:47.738Z,100820.66
2018-10-07T06:27:18.881Z,100822.01
2018-10-07T06:29:50.598Z,100822.53
2018-10-07T06:32:21.176Z,100815.69
2018-10-07T06:34:51.806Z,100823.02
2018-10-07T06:37:22.540Z,100824.70
2018-10-07T06:39:53.534Z,100824.21
2018-10-07T06:42:24.418Z,100827.39
2018-10-07T06:44:55.777Z,100831.08
2018-10-07T06:47:26.821Z,100832.43
2018-10-07T06:49:57.650Z,100841.84
2018-10-07T06:52:28.390Z,100840.02
2018-10-07T06:54:59.523Z,100839.16
2018-10-07T06:57:30.778Z,100837.09
2018-10-07T07:00:02.256Z,100844.16
2018-10-07T07:02:33.373Z,100845.51
2018-10-07T07:05:04.202Z,100848.20
2018-10-07T07:07:35.245Z,100855.41
2018-10-07T07:10:06.286Z,100858.62
2018-10-07T07:12:37.235Z,100863.14
2018-10-07T07:15:08.367Z,100869.72
2018-10-07T07:17:39.108Z,100872.41
2018-10-07T07:20:10.198Z,100878.28
2018-10-07T07:22:41.089Z,100883.17
2018-10-07T07:25:11.829Z,100876.11
2018-10-07T07:27:42.566Z,100873.75
2018-10-07T07:30:13.503Z,100867.89
2018-10-07T07:32:44.339Z,100871.44
2018-10-07T07:35:15.176Z,100867.03
2018-10-07T07:37:45.708Z,100874.13
2018-10-07T07:40:16.749Z,100871.44
2018-10-07T07:42:47.791Z,100877.16
2018-10-07T07:45:18.526Z,100880.38
2018-10-07T07:47:49.261Z,100887.92
2018-10-07T07:50:19.686Z,100885.23
2018-10-07T08:06:12.746Z,100900.66
2018-10-07T08:08:43.184Z,100904.35
2018-10-07T08:11:13.393Z,100908.73
2018-10-07T08:13:43.710Z,100908.25
2018-10-07T08:16:14.260Z,100902.38
2018-10-07T08:18:44.883Z,100905.93
2018-10-07T08:21:15.309Z,100907.28
2018-10-07T08:23:45.981Z,100910.31
2018-10-07T08:26:16.569Z,100925.00
2018-10-07T08:28:47.101Z,100929.38
2018-10-07T08:31:17.737Z,100935.62
2018-10-07T08:33:48.060Z,100940.52
2018-10-07T08:36:18.380Z,100933.78
2018-10-07T08:38:48.918Z,100934.75
2018-10-07T08:41:20.058Z,100943.20
2018-10-07T08:43:50.797Z,100946.75
2018-10-07T08:46:21.015Z,100940.52
2018-10-07T08:48:51.747Z,100946.75
2018-10-07T08:51:22.074Z,100951.62
2018-10-07T08:53:52.202Z,100950.27
2018-10-07T08:56:22.843Z,100954.31
2018-10-07T08:58:53.568Z,100951.99
2018-10-07T09:01:23.787Z,100953.34
2018-10-07T09:03:54.325Z,100959.09
2018-10-07T09:06:24.852Z,100955.41
2018-10-07T09:08:55.269Z,100957.27
2018-10-07T09:11:25.601Z,100964.71
2018-10-07T09:13:55.928Z,100972.78
2018-10-07T09:16:26.257Z,100969.61
2018-10-07T09:18:56.483Z,100963.70
2018-10-07T09:21:27.084Z,100973.02
2018-10-07T09:23:57.948Z,100979.75
2018-10-07T09:26:28.380Z,100986.81
2018-10-07T09:28:59.104Z,100996.98
2018-10-07T09:31:29.329Z,100980.32
2018-10-07T09:33:59.760Z,100987.28
2018-10-07T09:36:30.291Z,100995.36
2018-10-07T09:39:00.718Z,100991.32
2018-10-07T09:41:30.736Z,100977.52
2018-10-07T09:44:01.259Z,100978.38
2018-10-07T09:46:31.799Z,100982.77
2018-10-07T09:49:02.427Z,100985.94
2018-10-07T09:51:32.647Z,100982.77
2018-10-07T09:54:04.099Z,100983.24
2018-10-07T09:56:34.531Z,100994.39
2018-10-07T09:59:05.266Z,100987.66
2018-10-07T10:01:35.490Z,100990.34
2018-10-07T10:04:06.353Z,100992.55
2018-10-07T10:06:37.063Z,100995.73
2018-10-07T10:09:10.457Z,101001.48
2018-10-07T10:11:41.808Z,101001.97
2018-10-07T10:14:12.167Z,101021.16
2018-10-07T10:16:48.200Z,101016.78
2018-10-07T10:20:26.501Z,101017.98
2018-10-07T10:23:07.608Z,101022.50
2018-10-07T10:26:18.459Z,101025.82
2018-10-07T10:29:27.395Z,101034.76
2018-10-07T10:32:22.301Z,101036.25
2018-10-07T10:35:01.428Z,101037.59
2018-10-07T10:37:42.300Z,101038.08
2018-10-07T10:40:25.123Z,101038.94
2018-10-07T10:43:01.587Z,101038.94
2018-10-07T10:45:37.133Z,101042.11
2018-10-07T10:48:20.157Z,101050.05
2018-10-07T10:50:59.804Z,101052.39
2018-10-07T10:53:37.198Z,101058.13
2018-10-07T10:56:18.073Z,101054.08
2018-10-07T10:58:56.792Z,101056.29
2018-10-07T11:01:38.390Z,101058.60
2018-10-07T11:04:21.589Z,101064.84
2018-10-07T11:07:25.718Z,101065.70
2018-10-07T11:10:04.151Z,101063.50
2018-10-07T11:12:43.988Z,101063.16
2018-10-07T11:15:50.113Z,101053.73
2018-10-07T11:18:41.062Z,101058.27
2018-10-07T11:21:35.252Z,101060.47
2018-10-07T11:24:12.749Z,101055.08
2018-10-07T11:26:56.685Z,101053.22
2018-10-07T11:29:37.462Z,101050.91
2018-10-07T11:34:25.259Z,101048.70
2018-10-07T11:37:07.109Z,101062.53
2018-10-07T11:40:21.564Z,101069.27
2018-10-07T11:43:10.835Z,101079.17
2018-10-07T11:46:06.246Z,101082.72
2018-10-07T11:48:47.225Z,101097.38
2018-10-07T11:52:24.730Z,101096.41
2018-10-07T11:55:02.220Z,101107.18
2018-10-07T11:57:32.650Z,101111.22
2018-10-07T12:00:04.028Z,101108.91
2018-10-07T12:02:34.643Z,101113.28
2018-10-07T12:05:05.163Z,101102.03
2018-10-07T12:07:36.196Z,101105.94
2018-10-07T12:10:07.387Z,101112.66
2018-10-07T12:12:38.169Z,101121.59
2018-10-07T12:15:08.507Z,101127.84
2018-10-07T12:17:38.937Z,101130.91
2018-10-07T12:20:09.258Z,101126.02
2018-10-07T12:22:39.998Z,101130.39
2018-10-07T12:25:11.179Z,101134.81
2018-10-07T12:27:41.772Z,101137.36
2018-10-07T12:30:12.284Z,101143.13
2018-10-07T12:32:42.833Z,101143.13
2018-10-07T12:37:42.966Z,101158.17
2018-10-07T12:40:14.012Z,101165.77
2018-10-07T12:42:44.448Z,101168.80
2018-10-07T12:45:15.376Z,101168.31
2018-10-07T12:47:46.215Z,101173.22
2018-10-07T12:50:16.545Z,101175.42
2018-10-07T12:52:47.693Z,101183.88
2018-10-07T12:55:17.917Z,101187.91
2018-10-07T12:57:48.419Z,101188.75
2018-10-07T13:00:19.280Z,101185.57
2018-10-07T13:02:49.922Z,101191.95
2018-10-07T13:05:20.541Z,101193.65
2018-10-07T13:07:51.068Z,101194.52
2018-10-07T13:10:21.401Z,101198.55
2018-10-07T13:12:52.250Z,101205.66
2018-10-07T13:15:22.674Z,101211.39
2018-10-07T13:17:53.296Z,101214.08
2018-10-07T13:20:23.927Z,101223.88
2018-10-07T13:22:54.539Z,101231.82
2018-10-07T13:25:25.301Z,101235.00
2018-10-07T13:27:55.614Z,101230.95
2018-10-07T13:30:26.353Z,101233.17
2018-10-07T13:32:56.887Z,101234.03
2018-10-07T13:35:27.227Z,101236.72
2018-10-07T13:37:57.227Z,101243.45
2018-10-07T13:40:27.778Z,101239.41
2018-10-07T13:42:58.407Z,101239.03
2018-10-07T13:45:29.123Z,101237.69
2018-10-07T13:47:59.553Z,101245.77
2018-10-07T13:50:30.490Z,101253.50
2018-10-07T13:53:00.820Z,101258.89
2018-10-07T13:55:31.352Z,101262.55
2018-10-07T13:58:01.878Z,101267.93
2018-10-07T14:00:32.628Z,101271.63
2018-10-07T14:03:03.554Z,101276.49
2018-10-07T14:05:33.990Z,101277.11
2018-10-07T14:08:04.920Z,101281.16
2018-10-07T14:10:35.365Z,101282.98
2018-10-07T14:13:05.868Z,101286.53
2018-10-07T14:15:36.309Z,101278.59
2018-10-07T14:18:07.964Z,101282.63
2018-10-07T14:20:38.598Z,101291.58
2018-10-07T14:23:09.026Z,101293.89
2018-10-07T14:25:39.450Z,101306.00
2018-10-07T14:28:09.969Z,101297.55
2018-10-07T14:30:40.515Z,101301.59
2018-10-07T14:33:10.937Z,101304.41
2018-10-07T14:35:41.568Z,101309.31
2018-10-07T14:38:12.616Z,101319.22
2018-10-07T14:40:43.245Z,101317.50
2018-10-07T14:43:13.775Z,101320.32
2018-10-07T14:45:44.093Z,101324.84
2018-10-07T14:48:14.533Z,101322.64
2018-10-07T14:50:45.069Z,101320.94
2018-10-07T14:53:15.286Z,101326.81
2018-10-07T14:55:45.816Z,101323.25
2018-10-07T14:58:16.554Z,101328.64
2018-10-07T15:00:46.977Z,101319.70
2018-10-07T15:03:17.195Z,101321.17
2018-10-07T15:05:47.523Z,101323.01
2018-10-07T15:08:18.249Z,101326.56
2018-10-07T15:10:49.401Z,101329.73
2018-10-07T15:13:19.932Z,101333.39
2018-10-07T15:15:50.977Z,101338.30
2018-10-07T15:18:21.781Z,101338.43
2018-10-07T15:20:52.854Z,101342.81
2018-10-07T15:23:23.184Z,101343.81
2018-10-07T15:25:53.711Z,101339.39
2018-10-07T15:28:24.035Z,101336.70
2018-10-07T15:30:54.976Z,101336.70
2018-10-07T15:33:26.533Z,101332.80
2018-10-07T15:35:57.366Z,101340.88
2018-10-07T15:38:27.899Z,101346.27
2018-10-07T15:40:58.119Z,101351.27
2018-10-07T15:43:28.548Z,101355.30
2018-10-07T15:45:58.872Z,101355.78
2018-10-07T15:48:29.302Z,101357.12
2018-10-07T15:50:59.737Z,101363.38
2018-10-07T15:53:31.700Z,101361.55
2018-10-07T15:56:03.048Z,101363.86
2018-10-07T15:58:33.578Z,101365.20
2018-10-07T16:01:04.314Z,101365.58
2018-10-07T16:03:34.843Z,101362.52
2018-10-07T16:06:06.585Z,101372.41
2018-10-07T16:08:36.836Z,101363.99
2018-10-07T16:11:07.660Z,101374.27
2018-10-07T16:13:38.903Z,101379.28
2018-10-07T16:16:09.228Z,101375.72
2018-10-07T16:18:39.623Z,101371.69
2018-10-07T16:21:10.495Z,101374.86
2018-10-07T16:23:41.624Z,101374.86
2018-10-07T16:26:12.317Z,101373.64
2018-10-07T16:28:42.906Z,101379.41
2018-10-07T16:31:13.643Z,101374.12
2018-10-07T16:33:44.068Z,101371.44
2018-10-07T16:36:14.498Z,101375.13
2018-10-07T16:38:45.130Z,101381.34
2018-10-07T16:41:15.862Z,101383.20
2018-10-07T16:43:46.087Z,101383.68
2018-10-07T16:46:16.304Z,101390.41
2018-10-07T16:48:46.848Z,101387.34
2018-10-07T16:51:17.775Z,101382.44
2018-10-07T16:53:48.514Z,101380.26
2018-10-07T16:56:19.249Z,101386.13
2018-10-07T16:58:50.286Z,101385.73
2018-10-07T17:01:20.817Z,101388.91
2018-10-07T17:03:51.080Z,101390.26
2018-10-07T17:06:21.779Z,101391.25
2018-10-07T17:08:52.978Z,101390.88
2018-10-07T17:11:23.466Z,101390.88
2018-10-07T17:13:53.783Z,101390.88
2018-10-07T17:16:24.724Z,101401.64
2018-10-07T17:18:55.159Z,101402.09
2018-10-07T17:21:26.206Z,101408.98
2018-10-07T17:23:56.517Z,101410.42
2018-10-07T17:26:27.159Z,101415.80
2018-10-07T17:28:57.573Z,101413.98
2018-10-07T17:31:28.724Z,101411.77
2018-10-07T17:33:59.360Z,101414.11
2018-10-07T17:36:29.790Z,101423.87
2018-10-07T17:39:00.006Z,101414.98
2018-10-07T17:41:30.741Z,101417.52
2018-10-07T17:44:00.854Z,101428.91
2018-10-07T17:46:31.699Z,101428.91
2018-10-07T17:49:02.282Z,101424.02
2018-10-07T17:51:32.649Z,101434.77
2018-10-07T17:54:03.695Z,101430.73
2018-10-07T17:56:34.228Z,101431.13
2018-10-07T17:59:04.447Z,101427.19
2018-10-07T18:01:34.829Z,101425.84
2018-10-07T18:04:05.201Z,101434.30
2018-10-07T18:06:36.141Z,101432.47
2018-10-07T18:09:09.909Z,101435.64
2018-10-07T18:11:40.586Z,101432.56
2018-10-07T18:14:11.415Z,101434.39
2018-10-07T18:16:42.053Z,101439.30
2018-10-07T18:19:12.477Z,101447.84
2018-10-07T18:21:43.235Z,101450.06
2018-10-07T18:24:13.859Z,101446.41
2018-10-07T18:26:44.301Z,101451.78
2018-10-07T18:29:14.704Z,101453.13
2018-10-07T18:31:45.236Z,101457.17
2018-10-07T18:34:15.903Z,101459.86
2018-10-07T18:36:46.499Z,101463.77
2018-10-07T18:39:17.034Z,101464.25
2018-10-07T18:41:47.661Z,101460.34
2018-10-07T18:44:18.087Z,101472.93
2018-10-07T18:46:48.826Z,101476.01
2018-10-07T18:49:19.455Z,101476.48
2018-10-07T18:51:50.104Z,101473.31
2018-10-07T18:54:20.820Z,101472.93
2018-10-07T18:56:52.589Z,101476.48
2018-10-07T18:59:23.323Z,101479.18
2018-10-07T19:01:53.849Z,101479.31
2018-10-07T19:04:24.174Z,101476.62
2018-10-07T19:06:55.739Z,101482.34
2018-10-07T19:09:26.152Z,101481.48
2018-10-07T19:11:56.380Z,101474.41
2018-10-07T19:14:26.815Z,101477.09
2018-10-07T19:16:57.683Z,101479.31
2018-10-07T19:19:28.475Z,101480.66
2018-10-07T19:21:59.009Z,101473.55
2018-10-07T19:24:30.053Z,101463.26
2018-10-07T19:27:00.992Z,101467.30
2018-10-07T19:29:31.952Z,101467.30
2018-10-07T19:32:02.374Z,101463.73
2018-10-07T19:34:32.820Z,101466.08
2018-10-07T19:37:04.124Z,101467.42
2018-10-07T19:39:34.672Z,101462.05
2018-10-07T19:42:06.022Z,101465.59
2018-10-07T19:44:36.375Z,101471.55
2018-10-07T19:47:07.079Z,101472.80
2018-10-07T19:49:37.710Z,101472.91
2018-10-07T19:52:08.487Z,101476.45
2018-10-07T20:11:22.041Z,101466.95
2018-10-07T20:13:52.534Z,101473.55
2018-10-07T20:16:23.161Z,101472.45
2018-10-07T20:18:53.793Z,101477.22
2018-10-07T20:21:24.419Z,101474.78
2018-10-07T20:23:55.822Z,101473.82
2018-10-07T20:26:26.176Z,101470.04
2018-10-07T20:28:57.045Z,101467.22
2018-10-07T20:31:27.774Z,101460.39
2018-10-07T20:33:58.323Z,101456.22
2018-10-07T20:36:29.067Z,101462.34
2018-10-07T20:38:59.393Z,101460.89
2018-10-07T20:41:30.231Z,101462.23
2018-10-07T20:44:00.938Z,101450.99
2018-10-07T20:46:31.977Z,101458.55
2018-10-07T20:49:03.532Z,101451.83
2018-10-07T20:51:33.963Z,101455.77
2018-10-07T20:54:04.496Z,101459.80
2018-10-07T20:56:35.125Z,101455.77
2018-10-07T20:59:05.565Z,101462.48
2018-10-07T21:01:35.981Z,101459.31
2018-10-07T21:04:06.098Z,101465.56
2018-10-07T21:06:36.628Z,101461.02
2018-10-07T21:09:11.253Z,101451.59
2018-10-07T21:11:41.788Z,101450.77
2018-10-07T21:14:12.825Z,101455.62
2018-10-07T21:16:43.450Z,101460.19
2018-10-07T21:19:14.192Z,101456.63
2018-10-07T21:21:45.473Z,101460.19
2018-10-07T21:24:16.123Z,101454.28
2018-10-07T21:26:47.424Z,101460.05
2018-10-07T21:29:18.051Z,101464.95
2018-10-07T21:31:48.529Z,101461.40
2018-10-07T21:34:19.126Z,101468.00
2018-10-07T21:36:49.647Z,101467.64
2018-10-07T21:39:20.179Z,101466.65
2018-10-07T21:41:50.861Z,101463.13
2018-10-07T21:44:21.135Z,101466.65
2018-10-07T21:46:51.682Z,101464.95
2018-10-07T21:49:22.398Z,101464.95
2018-10-07T21:51:52.731Z,101466.30
2018-10-07T21:54:22.849Z,101461.78
2018-10-07T21:56:54.192Z,101457.84
2018-10-07T21:59:24.710Z,101463.22
2018-10-07T22:01:55.152Z,101460.19
2018-10-07T22:04:27.118Z,101452.11
2018-10-07T22:06:57.858Z,101453.45
2018-10-07T22:09:28.382Z,101450.37
2018-10-07T22:11:59.019Z,101452.20
2018-10-07T22:14:29.340Z,101457.97
2018-10-07T22:16:59.865Z,101447.30
2018-10-07T22:19:30.704Z,101433.11
2018-10-07T22:22:01.340Z,101433.59
2018-10-07T22:24:31.969Z,101439.45
2018-10-07T22:27:03.013Z,101431.52
2018-10-07T22:29:34.263Z,101440.07
2018-10-07T22:32:04.902Z,101441.90
2018-10-07T22:34:35.430Z,101445.11
2018-10-07T22:37:05.947Z,101438.38
2018-10-07T22:39:36.072Z,101442.03
2018-10-07T22:42:06.295Z,101429.92
2018-10-07T22:44:36.522Z,101433.95
2018-10-07T22:47:06.991Z,101433.09
2018-10-07T22:49:37.169Z,101426.11
2018-10-07T22:52:07.495Z,101437.27
2018-10-07T22:54:37.617Z,101435.05
2018-10-07T22:57:08.247Z,101439.56
2018-10-07T22:59:38.586Z,101432.84
2018-10-07T23:02:09.098Z,101435.18
2018-10-07T23:04:39.116Z,101432.48
2018-10-07T23:07:10.112Z,101436.53
2018-10-07T23:09:40.287Z,101430.77
2018-10-07T23:12:11.231Z,101437.01
2018-10-07T23:14:41.454Z,101441.53
2018-10-07T23:17:12.170Z,101445.95
2018-10-07T23:19:42.407Z,101437.97
2018-10-07T23:22:12.727Z,101437.49
2018-10-07T23:24:42.950Z,101442.88
2018-10-07T23:27:13.589Z,101445.56
2018-10-07T23:29:44.118Z,101452.29
2018-10-07T23:32:14.342Z,101332.50
2018-10-07T23:34:44.565Z,101451.42
2018-10-07T23:37:14.911Z,101453.64
2018-10-07T23:39:45.005Z,101453.64
2018-10-07T23:42:15.543Z,101445.18
2018-10-07T23:44:46.174Z,101448.25
2018-10-07T23:47:16.387Z,101433.94
2018-10-07T23:49:46.406Z,101422.82
2018-10-07T23:52:16.635Z,101424.65
2018-10-07T23:54:47.265Z,101430.37
2018-10-07T23:57:17.376Z,101436.76
2018-10-07T23:59:48.122Z,101437.23
